Portada
METAR-TAF:

METAR-TAF

Aeropuertos :

Aeropuerto Internacional Marco Polo

Venecia, Italia

latitud: 45-30N, longitud: 012-20E, altitud: 2 m

Observación

El informe se hizo hace 24 minutos, a las 07:50 UTC
Viento 9 kt del este-noreste
Temperatura 10°C
Humedad 53%
Presión 1021 hPa
Visibilidad 10 km o más
sin nubes por debajo de 1500 m y sin presencia de cumulonimbus.

METAR: LIPZ 160750Z 07009KT CAVOK 10/01 Q1021 NOSIG

Hora: 10:14 (08:14 UTC)

Pronóstico

El informe se hizo hace 3 horas y 14 minutos, a las 05:00 UTC
Pronóstico válido del 16 a las 06 UTC al 17 a las 12 UTC
Viento 5 kt del noroeste
Visibilidad 10 km o más
Nubes dispersas a una altura de 3000 ft
Evolucionando progresivamente
del 16 a las 11 UTC al 16 a las 13 UTC
Viento 10 kt del sur-sureste
Evolucionando progresivamente
del 16 a las 16 UTC al 16 a las 18 UTC
Viento 5 kt con dirección variable

TAF: LIPZ 160500Z 1606/1712 32005KT 9999 SCT030 BECMG 1611/1613 16010KT BECMG 1616/1618 VRB05KT

Observaciones y pronósticos meteorológicos de más de 4000 aeropuertos (mensajes METAR y TAF).

Los puntos amarillos y rojos representan las estaciones disponibles.

Ponga el ratón en el punto deseado para ver el nombre de la estación.

Haga clic para ver las observaciones y los pronósticos meteorológicos.

Para cambiar el mapa : haga clic en los botones verdes con una cruz de color negro para hacer un zoom, en el botón verde con un guión para alejar o en las flechas verdes para mapas adyacentes.


METAR-TAF: